createdAt,value
2022-10-31T00:01:29.840Z,40.97
2022-10-31T00:03:56.912Z,79.93
2022-10-31T00:06:24.282Z,42.40
2022-10-31T00:08:57.253Z,59.87
2022-10-31T00:11:24.798Z,48.77
2022-10-31T00:13:52.179Z,98.20
2022-10-31T00:16:24.665Z,86.37
2022-10-31T00:18:53.569Z,46.87
2022-10-31T00:21:21.493Z,56.97
2022-10-31T00:23:49.126Z,42.60
2022-10-31T00:26:17.728Z,48.93
2022-10-31T00:28:45.247Z,47.67
2022-10-31T00:31:13.549Z,86.90
2022-10-31T00:33:41.949Z,58.57
2022-10-31T00:36:14.253Z,124.17
2022-10-31T00:38:42.790Z,58.73
2022-10-31T00:41:10.972Z,64.27
2022-10-31T00:43:43.034Z,71.40
2022-10-31T00:46:11.076Z,166.10
2022-10-31T00:48:38.283Z,75.20
2022-10-31T00:51:06.136Z,77.37
2022-10-31T00:53:33.405Z,63.90
2022-10-31T00:56:00.423Z,60.37
2022-10-31T00:58:27.675Z,71.03
2022-10-31T01:00:57.843Z,72.37
2022-10-31T01:03:31.150Z,59.03
2022-10-31T01:06:05.533Z,58.10
2022-10-31T01:08:35.034Z,72.53
2022-10-31T01:11:15.120Z,48.77
2022-10-31T01:13:42.824Z,60.23
2022-10-31T01:16:14.152Z,54.63
2022-10-31T01:18:41.613Z,52.50
2022-10-31T01:21:11.917Z,49.10
2022-10-31T01:23:39.302Z,51.83
2022-10-31T01:26:13.350Z,71.07
2022-10-31T01:28:49.658Z,58.80
2022-10-31T01:31:18.208Z,47.90
2022-10-31T01:33:45.334Z,101.37
2022-10-31T01:36:13.139Z,57.90
2022-10-31T01:38:40.475Z,55.30
2022-10-31T01:41:07.501Z,48.17
2022-10-31T01:43:57.250Z,69.53
2022-10-31T01:46:41.866Z,54.73
2022-10-31T01:49:19.980Z,49.27
2022-10-31T01:51:52.997Z,60.47
2022-10-31T01:54:24.474Z,61.03
2022-10-31T01:56:56.642Z,50.30
2022-10-31T01:59:27.354Z,50.80
2022-10-31T02:01:55.148Z,79.37
2022-10-31T02:04:26.006Z,50.97
2022-10-31T02:07:02.216Z,50.03
2022-10-31T02:09:32.801Z,74.10
2022-10-31T02:12:03.398Z,45.80
2022-10-31T02:14:32.230Z,62.27
2022-10-31T02:16:59.339Z,50.70
2022-10-31T02:19:38.263Z,57.03
2022-10-31T02:22:18.025Z,43.53
2022-10-31T02:24:56.144Z,38.17
2022-10-31T02:28:07.419Z,40.33
2022-10-31T02:30:54.899Z,40.73
2022-10-31T02:33:29.548Z,50.60
2022-10-31T02:36:17.544Z,48.70
2022-10-31T02:38:56.524Z,38.30
2022-10-31T02:41:43.841Z,40.87
2022-10-31T02:44:38.376Z,52.93
2022-10-31T02:47:27.022Z,52.27
2022-10-31T02:49:57.819Z,45.00
2022-10-31T02:52:27.683Z,102.13
2022-10-31T02:55:25.306Z,97.43
2022-10-31T02:58:14.987Z,46.47
2022-10-31T03:00:54.415Z,49.80
2022-10-31T03:03:28.770Z,55.57
2022-10-31T03:06:10.065Z,193.10
2022-10-31T03:08:50.034Z,49.73
2022-10-31T03:11:20.515Z,50.60
2022-10-31T03:13:58.676Z,85.17
2022-10-31T03:16:38.794Z,66.97
2022-10-31T03:19:18.597Z,95.30
2022-10-31T03:22:15.929Z,76.73
2022-10-31T03:24:46.034Z,45.83
2022-10-31T03:27:20.009Z,52.20
2022-10-31T03:29:50.725Z,46.27
2022-10-31T03:32:22.470Z,67.60
2022-10-31T03:34:54.693Z,45.13
2022-10-31T03:37:24.649Z,47.67
2022-10-31T03:39:53.230Z,48.67
2022-10-31T03:42:25.955Z,54.13
2022-10-31T03:45:05.714Z,51.23
2022-10-31T03:47:33.947Z,120.83
2022-10-31T03:50:01.482Z,68.73
2022-10-31T03:52:29.322Z,66.77
2022-10-31T03:55:19.216Z,53.03
2022-10-31T03:58:05.299Z,64.07
2022-10-31T04:00:34.972Z,99.43
2022-10-31T04:03:10.205Z,76.23
2022-10-31T04:05:40.649Z,83.03
2022-10-31T04:08:14.228Z,161.93
2022-10-31T04:10:44.249Z,147.30
2022-10-31T04:13:17.005Z,173.20
2022-10-31T04:15:48.671Z,112.37
2022-10-31T04:18:17.384Z,190.63
2022-10-31T04:20:44.990Z,211.67
2022-10-31T04:23:25.587Z,185.10
2022-10-31T04:25:53.856Z,157.07
2022-10-31T04:28:20.832Z,166.80
2022-10-31T04:30:48.198Z,183.83
2022-10-31T04:33:15.271Z,159.03
2022-10-31T04:35:44.156Z,121.30
2022-10-31T04:38:11.537Z,139.83
2022-10-31T04:40:40.051Z,149.73
2022-10-31T04:43:29.732Z,153.80
2022-10-31T04:45:56.891Z,187.00
2022-10-31T04:48:23.798Z,163.73
2022-10-31T04:50:50.990Z,146.40
2022-10-31T04:53:17.875Z,183.27
2022-10-31T04:56:05.907Z,129.17
2022-10-31T04:58:39.413Z,207.20
2022-10-31T05:01:08.784Z,160.50
2022-10-31T05:03:35.789Z,231.03
2022-10-31T05:06:03.179Z,172.57
2022-10-31T05:08:30.200Z,212.13
2022-10-31T05:11:04.477Z,198.30
2022-10-31T05:13:32.588Z,132.53
2022-10-31T05:16:19.910Z,227.53
2022-10-31T05:19:06.840Z,211.20
2022-10-31T05:21:52.584Z,181.87
2022-10-31T05:24:22.732Z,150.43
2022-10-31T05:26:50.611Z,103.77
2022-10-31T05:29:18.282Z,273.50
2022-10-31T05:31:45.632Z,135.20
2022-10-31T05:34:30.322Z,130.30
2022-10-31T05:37:16.093Z,119.47
2022-10-31T05:39:43.085Z,104.30
2022-10-31T05:42:15.313Z,162.63
2022-10-31T05:44:42.424Z,105.87
2022-10-31T05:47:23.450Z,108.80
2022-10-31T05:49:56.716Z,118.60
2022-10-31T05:52:44.129Z,108.47
2022-10-31T05:55:20.345Z,115.50
2022-10-31T05:58:05.133Z,123.60
2022-10-31T06:00:36.038Z,140.23
2022-10-31T06:05:50.534Z,105.33
2022-10-31T06:08:19.797Z,115.67
2022-10-31T06:10:46.923Z,115.77
2022-10-31T06:13:16.881Z,125.33
2022-10-31T06:15:46.525Z,125.70
2022-10-31T06:18:13.709Z,107.27
2022-10-31T06:20:49.230Z,98.27
2022-10-31T06:23:17.148Z,114.07
2022-10-31T06:25:50.274Z,147.07
2022-10-31T06:28:17.839Z,105.67
2022-10-31T06:30:51.083Z,216.33
2022-10-31T06:33:18.884Z,153.93
2022-10-31T06:35:56.069Z,190.77
2022-10-31T06:38:23.839Z,130.27
2022-10-31T06:40:50.999Z,184.83
2022-10-31T06:43:27.263Z,155.17
2022-10-31T06:46:20.363Z,153.60
2022-10-31T06:49:26.143Z,94.73
2022-10-31T06:52:00.985Z,129.17
2022-10-31T06:54:28.430Z,226.50
2022-10-31T06:56:55.548Z,122.13
2022-10-31T06:59:22.760Z,144.97
2022-10-31T07:02:12.752Z,116.70
2022-10-31T07:04:42.616Z,134.33
2022-10-31T07:07:13.004Z,106.77
2022-10-31T07:09:40.812Z,143.00
2022-10-31T07:12:10.281Z,128.53
2022-10-31T07:14:41.064Z,83.20
2022-10-31T07:17:08.025Z,123.70
2022-10-31T07:19:39.639Z,81.77
2022-10-31T07:22:06.620Z,90.63
2022-10-31T07:24:35.058Z,108.90
2022-10-31T07:27:17.255Z,137.37
2022-10-31T07:29:46.385Z,91.97
2022-10-31T07:32:13.490Z,107.73
2022-10-31T07:34:47.647Z,102.47
2022-10-31T07:37:28.970Z,134.50
2022-10-31T07:39:57.775Z,100.80
2022-10-31T07:42:24.641Z,107.10
2022-10-31T07:44:53.916Z,149.57
2022-10-31T07:47:49.593Z,108.23
2022-10-31T07:50:35.723Z,87.90
2022-10-31T07:53:21.441Z,90.43
2022-10-31T07:55:53.257Z,100.73
2022-10-31T07:58:20.581Z,91.17
2022-10-31T08:00:48.651Z,126.67
2022-10-31T08:03:23.869Z,76.80
2022-10-31T08:06:29.022Z,68.77
2022-10-31T08:09:14.314Z,73.10
2022-10-31T08:11:42.250Z,92.80
2022-10-31T08:14:09.208Z,66.50
2022-10-31T08:16:36.382Z,71.67
2022-10-31T08:19:05.925Z,77.03
2022-10-31T08:21:38.344Z,67.67
2022-10-31T08:24:07.095Z,86.57
2022-10-31T08:26:34.419Z,106.23
2022-10-31T08:29:01.694Z,85.93
2022-10-31T08:31:34.420Z,73.23
2022-10-31T08:34:22.098Z,109.77
2022-10-31T08:36:52.703Z,148.70
2022-10-31T08:39:33.501Z,92.03
2022-10-31T08:42:00.657Z,72.27
2022-10-31T08:44:28.707Z,146.87
2022-10-31T08:46:55.867Z,79.43
2022-10-31T08:49:23.741Z,71.43
2022-10-31T08:51:51.525Z,78.17
2022-10-31T08:54:21.907Z,113.63
2022-10-31T08:57:11.785Z,69.00
2022-10-31T08:59:45.867Z,113.90
2022-10-31T09:02:22.614Z,67.10
2022-10-31T09:04:53.013Z,72.07
2022-10-31T09:07:21.292Z,80.17
2022-10-31T09:09:48.964Z,66.43
2022-10-31T09:12:17.741Z,67.67
2022-10-31T09:15:03.625Z,127.13
2022-10-31T09:17:49.450Z,66.37
2022-10-31T09:20:24.445Z,114.00
2022-10-31T09:23:00.855Z,105.07
2022-10-31T09:25:30.123Z,66.60
2022-10-31T09:28:34.424Z,56.93
2022-10-31T09:31:06.714Z,56.00
2022-10-31T09:33:56.891Z,62.00
2022-10-31T09:36:47.022Z,68.27
2022-10-31T09:39:19.145Z,72.23
2022-10-31T09:42:14.061Z,78.13
2022-10-31T09:44:56.976Z,56.43
2022-10-31T09:47:54.908Z,54.57
2022-10-31T09:50:55.666Z,80.90
2022-10-31T09:54:05.899Z,51.57
2022-10-31T09:56:34.154Z,54.50
2022-10-31T09:59:03.913Z,69.50
2022-10-31T10:01:44.675Z,67.00
2022-10-31T10:04:42.235Z,49.57
2022-10-31T10:07:23.901Z,53.23
2022-10-31T10:10:15.229Z,66.73
2022-10-31T10:13:09.978Z,61.87
2022-10-31T10:15:49.101Z,52.70
2022-10-31T10:18:53.909Z,60.23
2022-10-31T10:21:33.885Z,54.60
2022-10-31T10:24:27.311Z,50.33
2022-10-31T10:27:11.214Z,51.40
2022-10-31T10:29:56.761Z,52.20
2022-10-31T10:32:27.384Z,52.80
2022-10-31T10:35:22.942Z,63.47
2022-10-31T10:37:54.237Z,55.67
2022-10-31T10:40:25.228Z,58.97
2022-10-31T10:43:20.930Z,57.70
2022-10-31T10:46:21.892Z,62.30
2022-10-31T10:48:52.785Z,76.00
2022-10-31T10:52:07.087Z,80.27
2022-10-31T10:54:47.074Z,91.83
2022-10-31T10:57:18.814Z,76.60
2022-10-31T10:59:47.211Z,75.20
2022-10-31T11:02:23.928Z,68.33
2022-10-31T11:04:56.646Z,57.17
2022-10-31T11:07:23.852Z,117.60
2022-10-31T11:09:51.075Z,89.37
2022-10-31T11:12:31.723Z,92.93
2022-10-31T11:15:04.989Z,70.60
2022-10-31T11:17:39.777Z,76.17
2022-10-31T11:20:06.656Z,78.73
2022-10-31T11:22:33.812Z,130.93
2022-10-31T11:25:00.776Z,72.93
2022-10-31T11:27:28.350Z,99.13
2022-10-31T11:30:06.221Z,85.40
2022-10-31T11:32:33.622Z,63.40
2022-10-31T11:35:03.933Z,64.80
2022-10-31T11:37:37.961Z,114.90
2022-10-31T11:40:07.355Z,71.57
2022-10-31T11:42:41.266Z,71.73
2022-10-31T11:45:17.305Z,84.87
2022-10-31T11:47:48.774Z,73.47
2022-10-31T11:50:43.518Z,81.97
2022-10-31T11:53:29.285Z,79.83
2022-10-31T11:56:15.189Z,94.37
2022-10-31T11:58:43.542Z,78.00
2022-10-31T12:01:28.215Z,77.33
2022-10-31T12:03:58.426Z,97.63
2022-10-31T12:06:37.136Z,81.40
2022-10-31T12:09:20.105Z,71.10
2022-10-31T12:12:05.370Z,71.77
2022-10-31T12:15:11.020Z,85.43
2022-10-31T12:18:08.275Z,87.00
2022-10-31T12:21:03.188Z,102.23
2022-10-31T12:23:45.401Z,95.10
2022-10-31T12:26:33.846Z,94.33
2022-10-31T12:29:15.885Z,136.97
2022-10-31T12:32:11.475Z,112.30
2022-10-31T12:35:15.473Z,109.53
2022-10-31T12:37:57.844Z,119.60
2022-10-31T12:40:38.210Z,159.90
2022-10-31T12:43:15.849Z,159.37
2022-10-31T12:45:48.635Z,126.97
2022-10-31T12:48:57.101Z,125.60
2022-10-31T12:52:22.282Z,116.73
2022-10-31T12:55:07.472Z,108.43
2022-10-31T12:57:40.726Z,120.33
2022-10-31T13:00:17.131Z,100.83
2022-10-31T13:02:44.109Z,101.43
2022-10-31T13:05:38.578Z,97.87
2022-10-31T13:08:25.856Z,99.40
2022-10-31T13:13:36.665Z,110.00
2022-10-31T13:16:27.695Z,101.87
2022-10-31T13:19:02.866Z,106.80
2022-10-31T13:21:41.173Z,108.17
2022-10-31T13:24:17.457Z,113.53
2022-10-31T13:27:10.496Z,109.40
2022-10-31T13:29:44.345Z,107.93
2022-10-31T13:32:11.790Z,115.50
2022-10-31T13:34:44.188Z,119.40
2022-10-31T13:37:39.250Z,113.93
2022-10-31T13:40:19.058Z,112.73
2022-10-31T13:42:52.252Z,117.07
2022-10-31T13:45:22.558Z,121.40
2022-10-31T13:48:16.852Z,117.40
2022-10-31T13:50:55.765Z,114.63
2022-10-31T13:53:36.082Z,113.27
2022-10-31T13:56:14.395Z,96.27
2022-10-31T13:58:58.550Z,103.50
2022-10-31T14:01:25.860Z,96.27
2022-10-31T14:04:18.061Z,103.30
2022-10-31T14:07:09.037Z,94.53
2022-10-31T14:09:40.105Z,98.30
2022-10-31T14:12:13.810Z,103.53
2022-10-31T14:14:51.457Z,100.67
2022-10-31T14:17:25.040Z,93.63
2022-10-31T14:20:11.224Z,92.40
2022-10-31T14:22:42.884Z,102.30
2022-10-31T14:25:26.285Z,101.28
2022-10-31T14:27:53.609Z,214.67
2022-10-31T14:30:25.928Z,166.30
2022-10-31T14:32:56.433Z,115.57
2022-10-31T14:35:38.832Z,121.30
2022-10-31T14:38:33.834Z,131.33
2022-10-31T14:41:22.520Z,134.83
2022-10-31T14:44:04.315Z,145.60
2022-10-31T14:46:51.703Z,156.27
2022-10-31T14:49:37.146Z,159.07
2022-10-31T14:52:08.530Z,137.63
2022-10-31T14:54:46.020Z,128.40
2022-10-31T14:57:26.888Z,126.67
2022-10-31T15:00:03.643Z,130.63
2022-10-31T15:02:44.913Z,138.67
2022-10-31T15:05:14.089Z,132.53
2022-10-31T15:07:58.716Z,127.47
2022-10-31T15:10:26.330Z,168.17
2022-10-31T15:12:53.812Z,125.43
2022-10-31T15:15:25.927Z,160.77
2022-10-31T15:18:00.674Z,158.97
2022-10-31T15:20:31.461Z,136.10
2022-10-31T15:23:00.292Z,139.50
2022-10-31T15:25:33.310Z,169.30
2022-10-31T15:28:00.956Z,134.80
2022-10-31T15:30:30.208Z,200.87
2022-10-31T15:32:59.388Z,145.27
2022-10-31T15:35:28.155Z,129.03
2022-10-31T15:37:56.405Z,133.60
2022-10-31T15:40:25.824Z,165.73
2022-10-31T15:42:54.701Z,140.17
2022-10-31T15:45:26.423Z,165.30
2022-10-31T15:48:02.533Z,126.67
2022-10-31T15:50:38.166Z,125.17
2022-10-31T15:53:07.500Z,127.27
2022-10-31T15:55:45.905Z,132.40
2022-10-31T15:58:15.865Z,133.57
2022-10-31T16:00:42.892Z,117.70
2022-10-31T16:03:15.858Z,115.20
2022-10-31T16:05:52.102Z,122.50
2022-10-31T16:08:31.521Z,116.73
2022-10-31T16:11:28.732Z,107.37
2022-10-31T16:13:58.551Z,118.47
2022-10-31T16:16:35.265Z,102.17
2022-10-31T16:19:05.838Z,104.67
2022-10-31T16:21:39.503Z,134.17
2022-10-31T16:24:18.094Z,117.50
2022-10-31T16:26:50.331Z,119.77
2022-10-31T16:29:29.393Z,112.73
2022-10-31T16:31:56.529Z,100.97
2022-10-31T16:34:26.875Z,94.70
2022-10-31T16:36:54.282Z,113.70
2022-10-31T16:39:21.722Z,112.00
2022-10-31T16:41:53.331Z,99.17
2022-10-31T16:44:24.274Z,110.20
2022-10-31T16:47:16.128Z,98.90
2022-10-31T16:49:47.361Z,85.43
2022-10-31T16:52:14.291Z,99.07
2022-10-31T16:54:41.646Z,99.20
2022-10-31T16:57:15.829Z,95.47
2022-10-31T16:59:43.599Z,81.87
2022-10-31T17:02:16.239Z,89.17
2022-10-31T17:04:43.934Z,116.57
2022-10-31T17:07:10.952Z,97.90
2022-10-31T17:09:38.112Z,76.17
2022-10-31T17:12:07.942Z,77.27
2022-10-31T17:14:35.380Z,73.13
2022-10-31T17:17:02.268Z,75.77
2022-10-31T17:19:29.491Z,71.03
2022-10-31T17:21:56.535Z,83.77
2022-10-31T17:24:23.617Z,82.30
2022-10-31T17:26:50.525Z,105.57
2022-10-31T17:29:18.445Z,141.33
2022-10-31T17:31:45.305Z,92.77
2022-10-31T17:34:12.356Z,86.63
2022-10-31T17:36:39.288Z,78.93
2022-10-31T17:39:07.644Z,82.30
2022-10-31T17:41:34.595Z,73.73
2022-10-31T17:44:02.209Z,62.30
2022-10-31T17:46:29.053Z,73.17
2022-10-31T17:48:56.184Z,64.17
2022-10-31T17:51:23.235Z,61.10
2022-10-31T17:53:50.435Z,55.80
2022-10-31T17:56:17.380Z,64.87
2022-10-31T17:58:44.431Z,65.50
2022-10-31T18:01:14.014Z,71.80
2022-10-31T18:03:41.670Z,66.77
2022-10-31T18:06:10.492Z,82.00
2022-10-31T18:08:39.978Z,83.77
2022-10-31T18:11:17.032Z,79.83
2022-10-31T18:13:44.254Z,70.33
2022-10-31T18:16:14.258Z,72.37
2022-10-31T18:18:41.592Z,73.17
2022-10-31T18:21:08.914Z,69.53
2022-10-31T18:23:36.109Z,73.70
2022-10-31T18:26:03.200Z,72.10
2022-10-31T18:28:30.389Z,88.10
2022-10-31T18:31:00.770Z,66.93
2022-10-31T18:33:27.982Z,75.37
2022-10-31T18:35:55.088Z,77.47
2022-10-31T18:38:23.082Z,76.63
2022-10-31T18:40:51.710Z,79.50
2022-10-31T18:43:18.787Z,76.87
2022-10-31T18:45:48.117Z,84.00
2022-10-31T18:48:17.520Z,71.30
2022-10-31T18:50:44.546Z,72.23
2022-10-31T18:53:11.678Z,84.10
2022-10-31T18:55:44.010Z,72.47
2022-10-31T18:58:14.611Z,74.50
2022-10-31T19:00:41.587Z,68.50
2022-10-31T19:03:08.689Z,85.13
2022-10-31T19:05:35.647Z,65.90
2022-10-31T19:08:02.808Z,76.80
2022-10-31T19:10:30.103Z,63.40
2022-10-31T19:12:57.206Z,69.20
2022-10-31T19:15:24.089Z,67.30
2022-10-31T19:17:51.241Z,70.77
2022-10-31T19:20:18.312Z,69.50
2022-10-31T19:22:45.353Z,70.07
2022-10-31T19:25:12.396Z,72.03
2022-10-31T19:27:39.630Z,75.33
2022-10-31T19:30:07.637Z,68.50
2022-10-31T19:32:34.820Z,68.33
2022-10-31T19:35:01.713Z,63.23
2022-10-31T19:37:28.965Z,83.90
2022-10-31T19:39:55.855Z,92.60
2022-10-31T19:42:24.327Z,90.90
2022-10-31T19:44:51.220Z,94.33
2022-10-31T19:47:18.284Z,90.07
2022-10-31T19:49:45.208Z,88.63
2022-10-31T19:52:12.525Z,94.07
2022-10-31T19:54:39.404Z,101.63
2022-10-31T19:57:06.575Z,142.97
2022-10-31T19:59:38.272Z,87.03
2022-10-31T20:02:06.674Z,107.53
2022-10-31T20:04:33.618Z,100.97
2022-10-31T20:07:00.752Z,154.37
2022-10-31T20:09:27.629Z,118.50
2022-10-31T20:11:54.736Z,150.83
2022-10-31T20:14:21.714Z,108.83
2022-10-31T20:16:48.819Z,104.63
2022-10-31T20:19:15.733Z,117.53
2022-10-31T20:21:42.968Z,109.93
2022-10-31T20:24:10.959Z,115.10
2022-10-31T20:26:40.842Z,97.97
2022-10-31T20:29:08.105Z,96.17
2022-10-31T20:31:36.599Z,92.20
2022-10-31T20:34:04.009Z,94.73
2022-10-31T20:36:31.245Z,92.17
2022-10-31T20:38:58.804Z,92.73
2022-10-31T20:41:26.624Z,84.23
2022-10-31T20:43:53.606Z,85.20
2022-10-31T20:46:23.491Z,71.80
2022-10-31T20:48:50.974Z,69.77
2022-10-31T20:51:21.592Z,70.07
2022-10-31T20:53:52.698Z,60.33
2022-10-31T20:56:22.953Z,75.07
2022-10-31T20:58:50.701Z,57.90
2022-10-31T21:01:18.978Z,65.13
2022-10-31T21:03:46.160Z,75.00
2022-10-31T21:06:14.755Z,70.87
2022-10-31T21:08:43.273Z,70.77
2022-10-31T21:11:12.915Z,63.57
2022-10-31T21:13:41.961Z,62.77
2022-10-31T21:16:17.772Z,64.33
2022-10-31T21:18:46.206Z,56.13
2022-10-31T21:21:16.477Z,58.30
2022-10-31T21:23:44.206Z,61.00
2022-10-31T21:26:17.418Z,64.63
2022-10-31T21:28:44.922Z,54.53
2022-10-31T21:31:14.975Z,55.30
2022-10-31T21:33:43.020Z,58.50
2022-10-31T21:36:11.350Z,55.77
2022-10-31T21:38:38.790Z,60.67
2022-10-31T21:41:11.506Z,60.57
2022-10-31T21:43:40.584Z,58.83
2022-10-31T21:46:12.783Z,57.20
2022-10-31T21:48:42.239Z,62.47
2022-10-31T21:51:11.793Z,58.33
2022-10-31T21:53:57.842Z,62.07
2022-10-31T21:56:25.360Z,59.17
2022-10-31T21:58:53.288Z,64.30
2022-10-31T22:01:21.903Z,63.93
2022-10-31T22:03:49.411Z,64.00
2022-10-31T22:06:16.637Z,60.33
2022-10-31T22:08:43.757Z,58.80
2022-10-31T22:11:14.301Z,55.03
2022-10-31T22:13:43.630Z,62.23
2022-10-31T22:16:13.373Z,59.93
2022-10-31T22:18:41.154Z,56.27
2022-10-31T22:21:16.595Z,60.03
2022-10-31T22:23:44.537Z,58.90
2022-10-31T22:26:14.316Z,58.77
2022-10-31T22:28:42.919Z,57.80
2022-10-31T22:31:16.354Z,63.70
2022-10-31T22:33:44.580Z,62.28
2022-10-31T22:36:15.529Z,66.47
2022-10-31T22:38:43.679Z,60.47
2022-10-31T22:41:15.572Z,57.10
2022-10-31T22:43:42.799Z,57.57
2022-10-31T22:46:16.799Z,64.70
2022-10-31T22:48:47.441Z,55.60
2022-10-31T22:51:17.539Z,67.20
2022-10-31T22:53:45.119Z,69.03
2022-10-31T22:56:15.505Z,65.70
2022-10-31T22:58:43.040Z,67.67
2022-10-31T23:01:19.011Z,61.80
2022-10-31T23:03:47.899Z,69.13
2022-10-31T23:06:26.760Z,64.57
2022-10-31T23:08:59.027Z,64.80
2022-10-31T23:11:34.091Z,65.07
2022-10-31T23:14:13.748Z,72.43
2022-10-31T23:16:55.587Z,72.47
2022-10-31T23:19:27.507Z,61.03
2022-10-31T23:22:00.950Z,64.27
2022-10-31T23:24:39.813Z,60.20
2022-10-31T23:27:11.893Z,77.83
2022-10-31T23:29:51.050Z,63.67
2022-10-31T23:32:18.375Z,63.60
2022-10-31T23:34:46.358Z,69.90
2022-10-31T23:37:14.567Z,66.30
2022-10-31T23:39:41.636Z,70.43
2022-10-31T23:42:09.250Z,67.70
2022-10-31T23:44:36.160Z,68.47
2022-10-31T23:47:03.799Z,68.30
2022-10-31T23:49:30.674Z,63.00
2022-10-31T23:51:58.085Z,60.93
2022-10-31T23:54:26.413Z,60.83
2022-10-31T23:56:54.482Z,59.33
2022-10-31T23:59:22.903Z,56.67
